createdAt,value
2023-02-03T00:00:33.842Z,96.50
2023-02-03T00:01:33.823Z,96.50
2023-02-03T00:02:33.796Z,96.61
2023-02-03T00:03:33.799Z,96.61
2023-02-03T00:04:33.879Z,96.61
2023-02-03T00:05:33.770Z,96.71
2023-02-03T00:06:33.744Z,96.82
2023-02-03T00:07:33.748Z,96.82
2023-02-03T00:08:33.730Z,96.82
2023-02-03T00:09:33.722Z,96.77
2023-02-03T00:10:33.716Z,96.67
2023-02-03T00:11:33.697Z,96.67
2023-02-03T00:12:33.670Z,96.56
2023-02-03T00:13:33.680Z,96.67
2023-02-03T00:14:33.663Z,96.77
2023-02-03T00:15:33.636Z,96.88
2023-02-03T00:16:33.653Z,96.77
2023-02-03T00:17:33.616Z,96.88
2023-02-03T00:18:33.601Z,96.98
2023-02-03T00:19:33.590Z,96.98
2023-02-03T00:20:33.573Z,97.09
2023-02-03T00:21:33.546Z,97.09
2023-02-03T00:22:33.535Z,97.09
2023-02-03T00:23:33.554Z,96.98
2023-02-03T00:24:33.505Z,96.98
2023-02-03T00:25:34.125Z,96.98
2023-02-03T00:26:33.500Z,96.98
2023-02-03T00:27:33.489Z,97.04
2023-02-03T00:28:33.487Z,97.04
2023-02-03T00:29:33.445Z,97.04
2023-02-03T00:30:33.442Z,97.14
2023-02-03T00:31:33.486Z,97.25
2023-02-03T00:32:33.502Z,97.25
2023-02-03T00:33:33.421Z,97.25
2023-02-03T00:34:33.383Z,97.35
2023-02-03T00:35:33.365Z,97.25
2023-02-03T00:36:33.379Z,97.25
2023-02-03T00:37:33.356Z,97.35
2023-02-03T00:38:33.342Z,97.46
2023-02-03T00:39:33.320Z,97.56
2023-02-03T00:40:33.319Z,97.67
2023-02-03T00:41:33.340Z,97.83
2023-02-03T00:42:33.306Z,97.94
2023-02-03T00:43:33.281Z,98.14
2023-02-03T00:44:33.269Z,98.25
2023-02-03T00:45:33.317Z,98.35
2023-02-03T00:46:33.249Z,98.46
2023-02-03T00:47:33.240Z,98.56
2023-02-03T00:48:33.211Z,98.66
2023-02-03T00:49:33.198Z,98.87
2023-02-03T00:50:33.177Z,99.08
2023-02-03T00:51:33.218Z,99.29
2023-02-03T00:52:33.169Z,99.50
2023-02-03T00:53:33.175Z,99.60
2023-02-03T00:54:33.824Z,99.81
2023-02-03T00:55:33.115Z,99.91
2023-02-03T00:56:33.118Z,99.99
2023-02-03T00:57:33.104Z,99.99
2023-02-03T00:58:33.082Z,99.99
2023-02-03T00:59:33.105Z,99.99
2023-02-03T01:00:33.082Z,99.99
2023-02-03T01:01:33.928Z,99.99
2023-02-03T01:02:33.072Z,99.99
2023-02-03T01:03:33.050Z,99.99
2023-02-03T01:04:33.008Z,99.99
2023-02-03T01:05:32.998Z,99.99
2023-02-03T01:06:32.979Z,99.99
2023-02-03T01:07:32.967Z,99.99
2023-02-03T01:08:32.945Z,99.99
2023-02-03T01:09:32.958Z,99.99
2023-02-03T01:10:32.914Z,99.99
2023-02-03T01:11:32.927Z,99.99
2023-02-03T01:12:32.916Z,99.99
2023-02-03T01:13:32.925Z,99.99
2023-02-03T01:14:32.880Z,99.99
2023-02-03T01:15:32.892Z,99.99
2023-02-03T01:16:32.875Z,99.99
2023-02-03T01:17:32.843Z,99.99
2023-02-03T01:18:32.842Z,99.99
2023-02-03T01:19:32.823Z,99.99
2023-02-03T01:20:32.783Z,99.99
2023-02-03T01:21:32.773Z,99.99
2023-02-03T01:22:32.776Z,99.99
2023-02-03T01:23:32.768Z,99.99
2023-02-03T01:24:32.747Z,99.99
2023-02-03T01:25:32.733Z,99.99
2023-02-03T01:26:32.724Z,99.99
2023-02-03T01:27:32.703Z,99.99
2023-02-03T01:28:32.700Z,99.99
2023-02-03T01:29:32.673Z,99.99
2023-02-03T01:30:32.742Z,99.99
2023-02-03T01:31:32.780Z,99.99
2023-02-03T01:32:32.647Z,99.99
2023-02-03T01:33:32.647Z,99.99
2023-02-03T01:34:32.619Z,99.99
2023-02-03T01:35:42.257Z,99.99
2023-02-03T01:36:32.584Z,99.99
2023-02-03T01:37:32.596Z,99.99
2023-02-03T01:38:32.567Z,99.99
2023-02-03T01:39:32.580Z,99.99
2023-02-03T01:40:32.544Z,99.99
2023-02-03T01:41:32.536Z,99.99
2023-02-03T01:42:32.526Z,99.99
2023-02-03T01:43:32.510Z,99.99
2023-02-03T01:44:32.493Z,99.99
2023-02-03T01:45:32.494Z,99.99
2023-02-03T01:46:32.460Z,99.99
2023-02-03T01:47:32.457Z,99.99
2023-02-03T01:48:32.422Z,99.99
2023-02-03T01:49:32.428Z,99.99
2023-02-03T01:50:32.434Z,99.99
2023-02-03T01:51:32.395Z,99.99
2023-02-03T01:52:32.409Z,99.99
2023-02-03T01:53:32.384Z,99.99
2023-02-03T01:54:32.358Z,99.99
2023-02-03T01:55:32.345Z,99.99
2023-02-03T01:56:32.324Z,99.99
2023-02-03T01:57:32.340Z,99.99
2023-02-03T01:58:32.319Z,99.99
2023-02-03T01:59:32.293Z,99.99
2023-02-03T02:00:32.282Z,99.99
2023-02-03T02:01:32.311Z,99.99
2023-02-03T02:02:32.300Z,99.99
2023-02-03T02:03:32.242Z,99.99
2023-02-03T02:04:32.238Z,99.99
2023-02-03T02:05:32.226Z,99.99
2023-02-03T02:06:32.209Z,99.99
2023-02-03T02:07:32.210Z,99.99
2023-02-03T02:08:32.179Z,99.99
2023-02-03T02:09:32.160Z,99.99
2023-02-03T02:10:32.170Z,99.99
2023-02-03T02:11:32.139Z,99.99
2023-02-03T02:12:32.142Z,99.99
2023-02-03T02:13:32.958Z,99.99
2023-02-03T02:14:32.148Z,99.99
2023-02-03T02:15:32.212Z,99.99
2023-02-03T02:16:32.086Z,99.99
2023-02-03T02:17:32.073Z,99.99
2023-02-03T02:18:32.865Z,99.99
2023-02-03T02:19:32.084Z,99.99
2023-02-03T02:20:32.050Z,99.99
2023-02-03T02:21:32.005Z,99.99
2023-02-03T02:22:32.017Z,99.99
2023-02-03T02:23:31.981Z,99.99
2023-02-03T02:24:31.992Z,99.99
2023-02-03T02:25:31.985Z,99.99
2023-02-03T02:26:31.972Z,99.99
2023-02-03T02:27:31.936Z,99.99
2023-02-03T02:28:31.944Z,99.99
2023-02-03T02:29:31.941Z,99.99
2023-02-03T02:30:31.963Z,99.99
2023-02-03T02:31:32.024Z,99.99
2023-02-03T02:32:31.881Z,99.99
2023-02-03T02:33:31.865Z,99.99
2023-02-03T02:34:31.867Z,99.99
2023-02-03T02:35:31.864Z,99.99
2023-02-03T02:36:31.836Z,99.99
2023-02-03T02:37:31.818Z,99.99
2023-02-03T02:38:31.791Z,99.99
2023-02-03T02:39:31.789Z,99.99
2023-02-03T02:40:31.762Z,99.99
2023-02-03T02:41:31.768Z,99.99
2023-02-03T02:42:31.762Z,99.99
2023-02-03T02:43:31.734Z,99.99
2023-02-03T02:44:31.724Z,99.99
2023-02-03T02:45:31.714Z,99.99
2023-02-03T02:46:31.764Z,99.99
2023-02-03T02:47:31.682Z,99.99
2023-02-03T02:48:31.662Z,99.99
2023-02-03T02:49:31.650Z,99.99
2023-02-03T02:50:31.662Z,99.99
2023-02-03T02:51:31.646Z,99.99
2023-02-03T02:52:31.626Z,99.99
2023-02-03T02:53:31.665Z,99.99
2023-02-03T02:54:31.609Z,99.99
2023-02-03T02:55:31.570Z,99.99
2023-02-03T02:56:31.576Z,99.99
2023-02-03T02:57:31.551Z,99.99
2023-02-03T02:58:31.549Z,99.99
2023-02-03T02:59:31.531Z,99.99
2023-02-03T03:00:31.515Z,99.99
2023-02-03T03:01:31.544Z,99.99
2023-02-03T03:02:31.505Z,99.99
2023-02-03T03:03:31.469Z,99.99
2023-02-03T03:04:31.485Z,99.99
2023-02-03T03:05:31.478Z,99.99
2023-02-03T03:06:31.450Z,99.99
2023-02-03T03:07:31.419Z,99.99
2023-02-03T03:08:31.409Z,99.99
2023-02-03T03:09:31.389Z,99.99
2023-02-03T03:10:31.387Z,99.99
2023-02-03T03:11:31.362Z,99.99
2023-02-03T03:12:31.361Z,99.99
2023-02-03T03:13:31.397Z,99.99
2023-02-03T03:14:31.343Z,99.99
2023-02-03T03:15:31.332Z,99.99
2023-02-03T03:16:31.313Z,99.99
2023-02-03T03:17:31.294Z,99.99
2023-02-03T03:18:31.278Z,99.99
2023-02-03T03:19:31.283Z,99.99
2023-02-03T03:20:31.249Z,99.99
2023-02-03T03:21:31.230Z,99.99
2023-02-03T03:22:31.240Z,99.99
2023-02-03T03:23:31.264Z,99.99
2023-02-03T03:24:31.210Z,99.99
2023-02-03T03:25:31.194Z,99.99
2023-02-03T03:26:31.170Z,99.99
2023-02-03T03:27:31.184Z,99.99
2023-02-03T03:28:31.169Z,99.99
2023-02-03T03:29:31.174Z,99.99
2023-02-03T03:30:31.166Z,99.99
2023-02-03T03:31:31.203Z,99.99
2023-02-03T03:32:31.098Z,99.99
2023-02-03T03:33:31.100Z,99.99
2023-02-03T03:34:31.079Z,99.99
2023-02-03T03:35:31.070Z,99.99
2023-02-03T03:36:31.050Z,99.99
2023-02-03T03:37:31.041Z,99.99
2023-02-03T03:38:31.020Z,99.99
2023-02-03T03:39:31.008Z,99.99
2023-02-03T03:40:31.003Z,99.99
2023-02-03T03:41:31.002Z,99.99
2023-02-03T03:42:31.951Z,99.99
2023-02-03T03:43:30.950Z,99.99
2023-02-03T03:44:30.959Z,99.99
2023-02-03T03:45:30.928Z,99.99
2023-02-03T03:46:30.966Z,99.99
2023-02-03T03:47:30.909Z,99.99
2023-02-03T03:48:30.952Z,99.99
2023-02-03T03:49:30.901Z,99.99
2023-02-03T03:50:30.890Z,99.99
2023-02-03T03:51:30.876Z,99.99
2023-02-03T03:52:30.876Z,99.99
2023-02-03T03:53:30.832Z,99.99
2023-02-03T03:54:30.814Z,99.99
2023-02-03T03:55:30.831Z,99.99
2023-02-03T03:56:30.796Z,99.99
2023-02-03T03:57:30.768Z,99.99
2023-02-03T03:58:30.772Z,99.99
2023-02-03T03:59:30.790Z,99.99
2023-02-03T04:00:30.739Z,99.99
2023-02-03T04:01:31.630Z,99.99
2023-02-03T04:02:30.874Z,99.99
2023-02-03T04:03:30.797Z,99.99
2023-02-03T04:04:30.698Z,99.99
2023-02-03T04:05:30.680Z,99.99
2023-02-03T04:06:30.683Z,99.99
2023-02-03T04:07:30.661Z,99.99
2023-02-03T04:08:30.690Z,99.99
2023-02-03T04:09:30.660Z,99.99
2023-02-03T04:10:30.615Z,99.99
2023-02-03T04:11:30.599Z,99.99
2023-02-03T04:12:30.633Z,99.99
2023-02-03T04:13:30.573Z,99.99
2023-02-03T04:14:30.609Z,99.99
2023-02-03T04:15:30.540Z,99.99
2023-02-03T04:16:30.641Z,99.99
2023-02-03T04:17:30.531Z,99.99
2023-02-03T04:18:30.574Z,99.99
2023-02-03T04:19:30.487Z,99.99
2023-02-03T04:20:30.503Z,99.99
2023-02-03T04:21:30.472Z,99.99
2023-02-03T04:22:30.480Z,99.99
2023-02-03T04:23:30.505Z,99.99
2023-02-03T04:24:30.435Z,99.99
2023-02-03T04:25:30.421Z,99.99
2023-02-03T04:26:30.407Z,99.99
2023-02-03T04:27:30.401Z,99.99
2023-02-03T04:28:30.403Z,99.99
2023-02-03T04:29:30.380Z,99.99
2023-02-03T04:30:30.491Z,99.99
2023-02-03T04:31:30.455Z,99.99
2023-02-03T04:32:30.342Z,99.99
2023-02-03T04:33:30.312Z,99.99
2023-02-03T04:34:30.337Z,99.99
2023-02-03T04:35:30.310Z,99.99
2023-02-03T04:36:37.316Z,99.99
2023-02-03T04:37:30.266Z,99.99
2023-02-03T04:38:30.284Z,99.99
2023-02-03T04:39:30.232Z,99.99
2023-02-03T04:40:30.430Z,99.99
2023-02-03T04:41:30.257Z,99.99
2023-02-03T04:42:30.192Z,99.99
2023-02-03T04:43:30.185Z,99.99
2023-02-03T04:44:30.184Z,99.99
2023-02-03T04:45:30.241Z,99.99
2023-02-03T04:46:30.162Z,99.99
2023-02-03T04:47:30.125Z,99.99
2023-02-03T04:48:30.120Z,99.99
2023-02-03T04:49:30.123Z,99.99
2023-02-03T04:50:30.092Z,99.99
2023-02-03T04:51:30.083Z,99.99
2023-02-03T04:52:30.084Z,99.99
2023-02-03T04:53:30.049Z,99.99
2023-02-03T04:54:30.056Z,99.99
2023-02-03T04:55:30.055Z,99.99
2023-02-03T04:56:30.013Z,99.99
2023-02-03T04:57:30.014Z,99.99
2023-02-03T04:58:30.004Z,99.99
2023-02-03T04:59:29.978Z,99.99
2023-02-03T05:00:30.345Z,99.99
2023-02-03T05:01:29.941Z,99.99
2023-02-03T05:02:29.966Z,99.99
2023-02-03T05:03:29.944Z,99.99
2023-02-03T05:04:29.912Z,99.99
2023-02-03T05:05:29.893Z,99.99
2023-02-03T05:06:29.894Z,99.99
2023-02-03T05:07:29.861Z,99.99
2023-02-03T05:08:29.876Z,99.99
2023-02-03T05:09:29.852Z,99.99
2023-02-03T05:10:29.941Z,99.99
2023-02-03T05:11:29.840Z,99.99
2023-02-03T05:12:29.825Z,99.99
2023-02-03T05:13:29.812Z,99.99
2023-02-03T05:14:29.783Z,99.99
2023-02-03T05:15:29.781Z,99.99
2023-02-03T05:16:29.823Z,99.99
2023-02-03T05:17:29.755Z,99.99
2023-02-03T05:18:29.748Z,99.99
2023-02-03T05:19:29.728Z,99.99
2023-02-03T05:20:29.790Z,99.99
2023-02-03T05:21:29.704Z,99.99
2023-02-03T05:22:29.703Z,99.99
2023-02-03T05:23:29.682Z,99.99
2023-02-03T05:24:29.674Z,99.99
2023-02-03T05:25:29.640Z,99.99
2023-02-03T05:26:29.640Z,99.99
2023-02-03T05:27:29.618Z,99.99
2023-02-03T05:28:29.626Z,99.99
2023-02-03T05:29:29.621Z,99.99
2023-02-03T05:30:30.017Z,99.99
2023-02-03T05:31:29.589Z,99.99
2023-02-03T05:32:29.561Z,99.99
2023-02-03T05:33:29.569Z,99.99
2023-02-03T05:34:29.557Z,99.99
2023-02-03T05:35:29.538Z,99.99
2023-02-03T05:36:29.520Z,99.99
2023-02-03T05:37:29.504Z,99.99
2023-02-03T05:38:29.482Z,99.99
2023-02-03T05:39:29.461Z,99.99
2023-02-03T05:40:29.709Z,99.99
2023-02-03T05:41:29.443Z,99.99
2023-02-03T05:42:29.427Z,99.99
2023-02-03T05:43:29.429Z,99.99
2023-02-03T05:44:29.418Z,99.99
2023-02-03T05:45:29.478Z,99.99
2023-02-03T05:46:29.399Z,99.99
2023-02-03T05:47:29.360Z,99.99
2023-02-03T05:48:29.371Z,99.99
2023-02-03T05:49:29.330Z,99.99
2023-02-03T05:50:29.551Z,99.99
2023-02-03T05:51:29.310Z,99.99
2023-02-03T05:52:29.316Z,99.99
2023-02-03T05:53:29.289Z,99.99
2023-02-03T05:54:29.273Z,99.99
2023-02-03T05:55:29.250Z,99.99
2023-02-03T05:56:29.269Z,99.99
2023-02-03T05:57:31.932Z,99.99
2023-02-03T05:58:29.219Z,99.99
2023-02-03T05:59:29.217Z,99.99
2023-02-03T06:00:29.452Z,99.99
2023-02-03T06:01:29.186Z,99.99
2023-02-03T06:02:29.178Z,99.99
2023-02-03T06:03:29.196Z,99.99
2023-02-03T06:04:29.232Z,99.99
2023-02-03T06:05:29.131Z,99.99
2023-02-03T06:06:29.189Z,99.99
2023-02-03T06:07:29.127Z,99.99
2023-02-03T06:08:29.088Z,99.99
2023-02-03T06:09:29.083Z,99.99
2023-02-03T06:10:29.425Z,99.99
2023-02-03T06:11:29.074Z,99.99
2023-02-03T06:12:29.464Z,99.99
2023-02-03T06:13:29.019Z,99.99
2023-02-03T06:14:29.032Z,99.99
2023-02-03T06:15:29.024Z,99.99
2023-02-03T06:16:29.090Z,99.99
2023-02-03T06:17:29.013Z,99.99
2023-02-03T06:18:28.977Z,99.99
2023-02-03T06:19:28.949Z,99.99
2023-02-03T06:20:29.224Z,99.99
2023-02-03T06:21:28.936Z,99.99
2023-02-03T06:22:28.899Z,99.99
2023-02-03T06:23:28.909Z,99.99
2023-02-03T06:24:28.893Z,99.99
2023-02-03T06:25:28.901Z,99.99
2023-02-03T06:26:28.860Z,99.99
2023-02-03T06:27:28.862Z,99.99
2023-02-03T06:28:28.827Z,99.99
2023-02-03T06:29:28.833Z,99.99
2023-02-03T06:30:29.234Z,99.99
2023-02-03T06:31:29.013Z,99.99
2023-02-03T06:32:28.782Z,99.99
2023-02-03T06:33:28.770Z,99.99
2023-02-03T06:34:28.762Z,99.99
2023-02-03T06:35:28.782Z,99.99
2023-02-03T06:36:28.724Z,99.99
2023-02-03T06:37:28.742Z,99.99
2023-02-03T06:38:28.715Z,99.99
2023-02-03T06:39:28.695Z,99.99
2023-02-03T06:40:29.185Z,99.99
2023-02-03T06:41:28.669Z,99.99
2023-02-03T06:42:28.642Z,99.99
2023-02-03T06:43:28.640Z,99.99
2023-02-03T06:44:28.617Z,99.99
2023-02-03T06:45:28.610Z,99.99
2023-02-03T06:46:28.682Z,99.99
2023-02-03T06:47:28.595Z,99.99
2023-02-03T06:48:28.649Z,99.99
2023-02-03T06:49:28.572Z,99.99
2023-02-03T06:50:29.001Z,99.99
2023-02-03T06:51:28.561Z,99.99
2023-02-03T06:52:28.523Z,99.99
2023-02-03T06:53:28.513Z,99.99
2023-02-03T06:54:28.504Z,99.99
2023-02-03T06:55:28.504Z,99.99
2023-02-03T06:56:28.459Z,99.99
2023-02-03T06:57:28.470Z,99.99
2023-02-03T06:58:28.452Z,99.99
2023-02-03T06:59:28.446Z,99.99
2023-02-03T07:00:28.712Z,99.99
2023-02-03T07:01:28.467Z,99.99
2023-02-03T07:02:28.414Z,99.99
2023-02-03T07:03:28.388Z,99.99
2023-02-03T07:04:28.372Z,99.99
2023-02-03T07:05:28.359Z,99.99
2023-02-03T07:06:28.353Z,99.99
2023-02-03T07:07:28.368Z,99.99
2023-02-03T07:08:28.338Z,99.99
2023-02-03T07:09:28.310Z,99.99
2023-02-03T07:10:28.570Z,99.99
2023-02-03T07:11:28.292Z,99.99
2023-02-03T07:12:28.286Z,99.99
2023-02-03T07:13:28.264Z,99.99
2023-02-03T07:14:28.246Z,99.99
2023-02-03T07:15:28.228Z,99.99
2023-02-03T07:16:28.235Z,99.99
2023-02-03T07:17:28.212Z,99.99
2023-02-03T07:18:46.165Z,99.99
2023-02-03T07:19:29.192Z,99.99
2023-02-03T07:20:28.484Z,99.99
2023-02-03T07:21:28.175Z,99.99
2023-02-03T07:22:28.129Z,99.99
2023-02-03T07:23:28.132Z,99.99
2023-02-03T07:24:28.145Z,99.99
2023-02-03T07:25:28.121Z,99.99
2023-02-03T07:26:28.086Z,99.99
2023-02-03T07:27:28.076Z,99.99
2023-02-03T07:28:28.072Z,99.99
2023-02-03T07:29:28.076Z,99.99
2023-02-03T07:30:28.313Z,99.99
2023-02-03T07:31:28.137Z,99.99
2023-02-03T07:32:28.000Z,99.99
2023-02-03T07:33:27.989Z,99.99
2023-02-03T07:34:27.978Z,99.99
2023-02-03T07:35:28.013Z,99.99
2023-02-03T07:36:27.959Z,99.99
2023-02-03T07:37:27.950Z,99.99
2023-02-03T07:38:27.920Z,99.99
2023-02-03T07:39:27.927Z,99.99
2023-02-03T07:40:28.154Z,99.99
2023-02-03T07:41:27.913Z,99.99
2023-02-03T07:42:27.870Z,99.99
2023-02-03T07:43:27.872Z,99.99
2023-02-03T07:44:27.866Z,99.99
2023-02-03T07:45:27.840Z,99.99
2023-02-03T07:46:27.894Z,99.99
2023-02-03T07:47:27.824Z,99.99
2023-02-03T07:48:27.795Z,99.99
2023-02-03T07:49:27.803Z,99.99
2023-02-03T07:50:28.008Z,99.99
2023-02-03T07:51:27.764Z,99.99
2023-02-03T07:52:27.761Z,99.99
2023-02-03T07:53:27.737Z,99.99
2023-02-03T07:54:27.862Z,99.99
2023-02-03T07:55:27.720Z,99.99
2023-02-03T07:56:27.721Z,99.99
2023-02-03T07:57:27.699Z,99.99
2023-02-03T07:58:27.678Z,99.99
2023-02-03T07:59:27.650Z,99.99
2023-02-03T08:00:28.003Z,99.99
2023-02-03T08:01:27.680Z,99.99
2023-02-03T08:02:27.696Z,99.99
2023-02-03T08:03:27.609Z,99.99
2023-02-03T08:04:27.630Z,99.99
2023-02-03T08:05:27.591Z,99.99
2023-02-03T08:06:27.570Z,99.99
2023-02-03T08:07:27.599Z,99.99
2023-02-03T08:08:27.537Z,99.99
2023-02-03T08:09:27.594Z,99.99
2023-02-03T08:10:27.815Z,99.99
2023-02-03T08:11:27.497Z,99.99
2023-02-03T08:12:27.481Z,99.99
2023-02-03T08:13:27.478Z,99.99
2023-02-03T08:14:27.479Z,99.99
2023-02-03T08:15:27.479Z,99.99
2023-02-03T08:16:27.517Z,99.99
2023-02-03T08:17:27.419Z,99.99
2023-02-03T08:18:27.423Z,99.99
2023-02-03T08:19:27.410Z,99.99
2023-02-03T08:20:27.756Z,99.99
2023-02-03T08:21:27.386Z,99.99
2023-02-03T08:22:27.353Z,99.99
2023-02-03T08:23:27.362Z,99.99
2023-02-03T08:24:27.342Z,99.99
2023-02-03T08:25:27.338Z,99.99
2023-02-03T08:26:27.321Z,99.99
2023-02-03T08:27:27.339Z,99.99
2023-02-03T08:28:27.343Z,99.99
2023-02-03T08:29:27.272Z,99.99
2023-02-03T08:30:27.687Z,99.99
2023-02-03T08:31:27.305Z,99.99
2023-02-03T08:32:27.235Z,99.99
2023-02-03T08:33:27.219Z,99.99
2023-02-03T08:34:27.225Z,99.99
2023-02-03T08:35:27.189Z,99.99
2023-02-03T08:36:27.179Z,99.99
2023-02-03T08:37:27.198Z,99.99
2023-02-03T08:38:27.157Z,99.99
2023-02-03T08:39:27.152Z,99.99
2023-02-03T08:40:27.536Z,99.99
2023-02-03T08:41:27.136Z,99.99
2023-02-03T08:42:27.090Z,99.99
2023-02-03T08:43:27.105Z,99.99
2023-02-03T08:44:27.079Z,99.99
2023-02-03T08:45:27.150Z,99.99
2023-02-03T08:46:27.085Z,99.99
2023-02-03T08:47:27.049Z,99.99
2023-02-03T08:48:27.128Z,99.99
2023-02-03T08:49:26.998Z,99.99
2023-02-03T08:50:27.280Z,99.99
2023-02-03T08:51:26.981Z,99.99
2023-02-03T08:52:26.958Z,99.99
2023-02-03T08:53:26.966Z,99.99
2023-02-03T08:54:26.943Z,99.99
2023-02-03T08:55:26.944Z,99.99
2023-02-03T08:56:26.959Z,99.99
2023-02-03T08:57:26.901Z,99.99
2023-02-03T08:58:26.996Z,99.99
2023-02-03T08:59:26.893Z,99.99
2023-02-03T09:00:27.134Z,99.99
2023-02-03T09:01:26.994Z,99.99
2023-02-03T09:02:26.863Z,99.99
2023-02-03T09:03:26.905Z,99.99
2023-02-03T09:04:26.885Z,99.99
2023-02-03T09:05:26.834Z,99.99
2023-02-03T09:06:26.796Z,99.99
2023-02-03T09:07:26.779Z,99.99
2023-02-03T09:08:26.881Z,99.99
2023-02-03T09:09:26.751Z,99.99
2023-02-03T09:10:27.188Z,99.99
2023-02-03T09:11:26.765Z,99.99
2023-02-03T09:12:26.761Z,99.99
2023-02-03T09:13:26.722Z,99.99
2023-02-03T09:14:26.674Z,99.99
2023-02-03T09:15:26.686Z,99.99
2023-02-03T09:16:26.717Z,99.99
2023-02-03T09:17:26.659Z,99.99
2023-02-03T09:18:26.618Z,99.99
2023-02-03T09:19:26.633Z,99.99
2023-02-03T09:20:27.060Z,99.99
2023-02-03T09:21:36.654Z,99.99
2023-02-03T09:22:27.569Z,99.99
2023-02-03T09:23:26.575Z,99.99
2023-02-03T09:24:26.551Z,99.99
2023-02-03T09:25:26.567Z,99.99
2023-02-03T09:26:26.543Z,99.99
2023-02-03T09:27:26.533Z,99.99
2023-02-03T09:28:26.509Z,99.99
2023-02-03T09:29:26.514Z,99.99
2023-02-03T09:30:27.129Z,99.99
2023-02-03T09:31:26.520Z,99.99
2023-02-03T09:32:26.450Z,99.99
2023-02-03T09:33:26.435Z,99.99
2023-02-03T09:34:26.414Z,99.99
2023-02-03T09:35:26.438Z,99.99
2023-02-03T09:36:26.451Z,99.99
2023-02-03T09:37:26.381Z,99.99
2023-02-03T09:38:26.389Z,99.99
2023-02-03T09:39:26.361Z,99.99
2023-02-03T09:40:26.844Z,99.99
2023-02-03T09:41:26.354Z,99.99
2023-02-03T09:42:26.308Z,99.99
2023-02-03T09:43:26.323Z,99.99
2023-02-03T09:44:26.322Z,99.99
2023-02-03T09:45:26.315Z,99.99
2023-02-03T09:46:26.342Z,99.99
2023-02-03T09:47:26.251Z,99.99
2023-02-03T09:48:26.251Z,99.99
2023-02-03T09:49:26.269Z,99.99
2023-02-03T09:50:26.608Z,99.99
2023-02-03T09:51:26.230Z,99.99
2023-02-03T09:52:26.179Z,99.99
2023-02-03T09:53:26.172Z,99.99
2023-02-03T09:54:26.191Z,99.99
2023-02-03T09:55:26.189Z,99.99
2023-02-03T09:56:26.139Z,99.99
2023-02-03T09:57:26.120Z,99.99
2023-02-03T09:58:26.110Z,99.99
2023-02-03T09:59:26.118Z,99.99
2023-02-03T10:00:26.409Z,99.99
2023-02-03T10:01:26.170Z,99.99
2023-02-03T10:02:26.097Z,99.99
2023-02-03T10:03:26.040Z,99.99
2023-02-03T10:04:26.029Z,99.99
2023-02-03T10:05:26.063Z,99.99
2023-02-03T10:06:26.019Z,99.99
2023-02-03T10:07:26.009Z,99.99
2023-02-03T10:08:26.014Z,99.99
2023-02-03T10:09:25.973Z,99.99
2023-02-03T10:10:26.284Z,99.99
2023-02-03T10:11:25.974Z,99.99
2023-02-03T10:12:25.994Z,99.99
2023-02-03T10:13:25.921Z,99.99
2023-02-03T10:14:25.915Z,99.99
2023-02-03T10:15:25.932Z,99.99
2023-02-03T10:16:25.950Z,99.99
2023-02-03T10:17:25.880Z,99.99
2023-02-03T10:18:25.872Z,99.99
2023-02-03T10:19:25.842Z,99.99
2023-02-03T10:20:26.224Z,99.99
2023-02-03T10:21:25.833Z,99.99
2023-02-03T10:22:25.804Z,99.99
2023-02-03T10:23:25.801Z,99.99
2023-02-03T10:24:25.769Z,99.99
2023-02-03T10:25:25.773Z,99.99
2023-02-03T10:26:25.775Z,99.99
2023-02-03T10:27:25.825Z,99.99
2023-02-03T10:28:25.724Z,99.99
2023-02-03T10:29:25.710Z,99.99
2023-02-03T10:30:25.843Z,99.99
2023-02-03T10:31:25.758Z,99.99
2023-02-03T10:32:25.693Z,99.99
2023-02-03T10:33:25.650Z,99.99
2023-02-03T10:34:25.662Z,99.99
2023-02-03T10:35:25.630Z,99.99
2023-02-03T10:36:25.638Z,99.99
2023-02-03T10:37:32.698Z,99.99
2023-02-03T10:38:25.620Z,99.99
2023-02-03T10:39:25.590Z,99.99
2023-02-03T10:40:25.807Z,99.99
2023-02-03T10:41:25.656Z,99.99
2023-02-03T10:42:25.571Z,99.99
2023-02-03T10:43:25.553Z,99.99
2023-02-03T10:44:25.561Z,99.99
2023-02-03T10:45:25.503Z,99.99
2023-02-03T10:46:25.566Z,99.99
2023-02-03T10:47:25.500Z,99.99
2023-02-03T10:48:25.553Z,99.99
2023-02-03T10:49:25.506Z,99.99
2023-02-03T10:50:25.632Z,99.99
2023-02-03T10:51:25.432Z,99.99
2023-02-03T10:52:25.431Z,99.99
2023-02-03T10:53:25.407Z,99.99
2023-02-03T10:54:25.411Z,99.99
2023-02-03T10:55:25.411Z,99.99
2023-02-03T10:56:25.387Z,99.99
2023-02-03T10:57:25.398Z,99.99
2023-02-03T10:58:25.354Z,99.99
2023-02-03T10:59:25.340Z,99.99
2023-02-03T11:00:25.627Z,99.73
2023-02-03T11:01:25.422Z,98.70
2023-02-03T11:02:25.364Z,97.77
2023-02-03T11:03:25.277Z,97.01
2023-02-03T11:04:25.267Z,96.70
2023-02-03T11:05:25.279Z,96.95
2023-02-03T11:06:25.241Z,97.16
2023-02-03T11:07:25.232Z,96.74
2023-02-03T11:08:25.221Z,96.80
2023-02-03T11:09:25.232Z,95.15
2023-02-03T11:10:25.421Z,95.25
2023-02-03T11:11:25.385Z,95.05
2023-02-03T11:12:25.155Z,95.87
2023-02-03T11:13:25.146Z,96.02
2023-02-03T11:14:25.125Z,95.92
2023-02-03T11:15:25.321Z,96.28
2023-02-03T11:16:25.146Z,96.12
2023-02-03T11:17:25.107Z,95.98
2023-02-03T11:18:25.110Z,95.67
2023-02-03T11:19:25.060Z,93.60
2023-02-03T11:20:25.063Z,93.15
2023-02-03T11:21:25.125Z,92.53
2023-02-03T11:22:25.025Z,92.22
2023-02-03T11:23:25.015Z,91.46
2023-02-03T11:24:25.010Z,90.64
2023-02-03T11:25:24.990Z,91.25
2023-02-03T11:26:25.030Z,91.56
2023-02-03T11:27:24.969Z,91.56
2023-02-03T11:28:24.961Z,91.87
2023-02-03T11:29:24.931Z,91.46
2023-02-03T11:30:25.040Z,91.25
2023-02-03T11:31:25.025Z,90.64
2023-02-03T11:32:24.933Z,89.77
2023-02-03T11:33:24.909Z,89.77
2023-02-03T11:34:24.885Z,90.28
2023-02-03T11:35:24.885Z,89.56
2023-02-03T11:36:24.860Z,90.80
2023-02-03T11:37:24.840Z,89.87
2023-02-03T11:38:24.828Z,90.28
2023-02-03T11:39:24.815Z,90.59
2023-02-03T11:40:25.132Z,90.18
2023-02-03T11:41:24.790Z,90.18
2023-02-03T11:42:24.787Z,89.97
2023-02-03T11:43:24.757Z,89.77
2023-02-03T11:44:24.736Z,90.39
2023-02-03T11:45:24.745Z,90.39
2023-02-03T11:46:24.774Z,89.87
2023-02-03T11:47:24.718Z,89.77
2023-02-03T11:48:24.706Z,89.15
2023-02-03T11:49:24.716Z,89.01
2023-02-03T11:50:24.670Z,89.01
2023-02-03T11:51:24.671Z,88.49
2023-02-03T11:52:24.666Z,89.01
2023-02-03T11:53:24.643Z,88.49
2023-02-03T11:54:24.616Z,88.49
2023-02-03T11:55:24.607Z,89.01
2023-02-03T11:56:24.608Z,88.59
2023-02-03T11:57:24.692Z,89.01
2023-02-03T11:58:24.590Z,88.59
2023-02-03T11:59:24.614Z,88.80
2023-02-03T12:00:24.555Z,88.45
2023-02-03T12:01:24.523Z,88.24
2023-02-03T12:02:25.408Z,87.12
2023-02-03T12:03:24.525Z,86.80
2023-02-03T12:04:24.511Z,87.22
2023-02-03T12:05:24.487Z,85.94
2023-02-03T12:06:24.502Z,85.94
2023-02-03T12:07:24.472Z,86.56
2023-02-03T12:08:24.529Z,85.53
2023-02-03T12:09:24.439Z,86.15
2023-02-03T12:10:24.443Z,85.28
2023-02-03T12:11:24.407Z,84.88
2023-02-03T12:12:24.413Z,85.49
2023-02-03T12:13:24.418Z,85.18
2023-02-03T12:14:24.407Z,84.67
2023-02-03T12:15:24.571Z,84.98
2023-02-03T12:16:24.341Z,85.08
2023-02-03T12:17:24.328Z,85.14
2023-02-03T12:18:24.312Z,84.32
2023-02-03T12:19:24.278Z,83.61
2023-02-03T12:20:24.308Z,81.96
2023-02-03T12:21:24.257Z,81.86
2023-02-03T12:22:24.248Z,81.55
2023-02-03T12:23:24.246Z,81.76
2023-02-03T12:24:24.242Z,81.96
2023-02-03T12:25:24.219Z,81.45
2023-02-03T12:26:24.227Z,81.76
2023-02-03T12:27:24.195Z,82.47
2023-02-03T12:28:33.206Z,81.96
2023-02-03T12:29:25.157Z,82.99
2023-02-03T12:30:24.138Z,82.37
2023-02-03T12:31:24.226Z,81.86
2023-02-03T12:32:24.153Z,81.34
2023-02-03T12:33:24.115Z,81.55
2023-02-03T12:34:24.115Z,80.83
2023-02-03T12:35:24.094Z,80.42
2023-02-03T12:36:24.068Z,80.93
2023-02-03T12:37:24.058Z,80.32
2023-02-03T12:38:24.065Z,80.52
2023-02-03T12:39:24.030Z,80.52
2023-02-03T12:40:24.020Z,80.83
2023-02-03T12:41:23.997Z,80.63
2023-02-03T12:42:24.008Z,80.83
2023-02-03T12:43:24.012Z,80.83
2023-02-03T12:44:23.973Z,80.83
2023-02-03T12:45:23.939Z,80.01
2023-02-03T12:46:23.960Z,80.32
2023-02-03T12:47:23.939Z,80.21
2023-02-03T12:48:24.120Z,80.01
2023-02-03T12:49:23.910Z,81.14
2023-02-03T12:50:23.892Z,80.93
2023-02-03T12:51:23.888Z,80.46
2023-02-03T12:52:23.864Z,80.97